Time;durP1;ratioP1;P1;durP2;ratioP2;P2;SDS_P1;SDS_P2;PMS_P1;PMS_P2;Temp;Humidity;BMP_temperature;BMP_pressure;BME280_temperature;BME280_humidity;BME280_pressure;Samples;Min_cycle;Max_cycle;Signal;HPM_P1;HPM_P2
2023/05/22 00:00:27;;;;;;;13.60;7.80;;;;;;;-128.00;-1.00;-1.00;105468;1253;1003612;-80
2023/05/22 00:03:13;;;;;;;12.50;8.20;;;;;;;-128.00;-1.00;-1.00;105458;1253;1060282;-78
2023/05/22 00:05:40;;;;;;;16.70;8.60;;;;;;;-128.00;-1.00;-1.00;105414;1253;1004455;-80
2023/05/22 00:08:10;;;;;;;16.40;8.10;;;;;;;-128.00;-1.00;-1.00;105455;1253;1003520;-77
2023/05/22 00:10:37;;;;;;;11.70;8.60;;;;;;;-128.00;-1.00;-1.00;105421;1253;1046192;-78
2023/05/22 00:13:04;;;;;;;13.70;8.40;;;;;;;-128.00;-1.00;-1.00;105473;1252;1005012;-78
2023/05/22 00:15:31;;;;;;;20.50;8.20;;;;;;;-128.00;-1.00;-1.00;105462;1254;1004841;-78
2023/05/22 00:17:58;;;;;;;12.90;8.20;;;;;;;-128.00;-1.00;-1.00;105364;1253;1003986;-80
2023/05/22 00:20:25;;;;;;;13.10;7.90;;;;;;;-128.00;-1.00;-1.00;105429;1253;1005031;-78
2023/05/22 00:22:52;;;;;;;9.50;6.50;;;;;;;-128.00;-1.00;-1.00;105472;1253;1004352;-78
2023/05/22 00:25:19;;;;;;;10.50;7.10;;;;;;;-128.00;-1.00;-1.00;105481;1253;1003963;-78
2023/05/22 00:27:46;;;;;;;15.60;7.10;;;;;;;-128.00;-1.00;-1.00;105467;1253;1005205;-79
2023/05/22 00:30:12;;;;;;;13.10;7.40;;;;;;;-128.00;-1.00;-1.00;105458;1252;1004535;-78
2023/05/22 00:32:39;;;;;;;10.00;7.50;;;;;;;-128.00;-1.00;-1.00;105292;1253;1004662;-80
2023/05/22 00:35:07;;;;;;;13.10;6.80;;;;;;;-128.00;-1.00;-1.00;105458;1252;1004291;-78
2023/05/22 00:37:33;;;;;;;10.80;8.00;;;;;;;-128.00;-1.00;-1.00;105461;1253;1004955;-79
2023/05/22 00:39:59;;;;;;;10.20;6.40;;;;;;;-128.00;-1.00;-1.00;105475;1253;1003708;-78
2023/05/22 00:42:26;;;;;;;12.10;6.40;;;;;;;-128.00;-1.00;-1.00;105457;1253;1003410;-79
2023/05/22 00:44:52;;;;;;;13.20;6.80;;;;;;;-128.00;-1.00;-1.00;105368;1252;1004544;-80
2023/05/22 00:47:18;;;;;;;8.30;5.80;;;;;;;-128.00;-1.00;-1.00;105459;1253;1003778;-78
2023/05/22 00:49:45;;;;;;;10.40;7.00;;;;;;;-128.00;-1.00;-1.00;105492;1253;1004901;-78
2023/05/22 00:52:11;;;;;;;17.40;7.00;;;;;;;-128.00;-1.00;-1.00;105462;1253;1004869;-78
2023/05/22 00:54:38;;;;;;;11.60;7.20;;;;;;;-128.00;-1.00;-1.00;105473;1253;1004201;-80
2023/05/22 00:57:04;;;;;;;12.20;8.10;;;;;;;-128.00;-1.00;-1.00;105457;1252;1003893;-79
2023/05/22 00:59:31;;;;;;;12.20;8.00;;;;;;;-128.00;-1.00;-1.00;105355;1253;1004348;-80
2023/05/22 01:01:57;;;;;;;12.50;8.50;;;;;;;-128.00;-1.00;-1.00;105382;1253;1004138;-80
2023/05/22 01:04:24;;;;;;;15.40;7.20;;;;;;;-128.00;-1.00;-1.00;105488;1252;1004427;-79
2023/05/22 01:06:50;;;;;;;15.50;7.70;;;;;;;-128.00;-1.00;-1.00;105391;1253;1004337;-80
2023/05/22 01:09:17;;;;;;;9.60;7.30;;;;;;;-128.00;-1.00;-1.00;105286;1254;1004301;-79
2023/05/22 01:12:19;;;;;;;11.70;7.80;;;;;;;-128.00;-1.00;-1.00;105438;1252;1004721;-80
2023/05/22 01:14:52;;;;;;;13.10;8.20;;;;;;;-128.00;-1.00;-1.00;105561;1253;1046657;-78
2023/05/22 01:17:27;;;;;;;15.70;8.00;;;;;;;-128.00;-1.00;-1.00;105608;1253;1060507;-78
2023/05/22 01:20:18;;;;;;;13.60;8.10;;;;;;;-128.00;-1.00;-1.00;105679;1253;1058761;-78
2023/05/22 01:22:48;;;;;;;14.00;7.20;;;;;;;-128.00;-1.00;-1.00;105673;1252;1059293;-79
2023/05/22 01:25:27;;;;;;;10.60;8.50;;;;;;;-128.00;-1.00;-1.00;105684;1253;1046417;-78
2023/05/22 01:27:54;;;;;;;;;;;;;;;-128.00;-1.00;-1.00;105311;1253;1047260;-80
2023/05/22 01:30:41;;;;;;;10.80;7.00;;;;;;;-128.00;-1.00;-1.00;105486;1253;1003331;-80
2023/05/22 01:33:08;;;;;;;12.30;8.40;;;;;;;-128.00;-1.00;-1.00;105505;1253;1059117;-79
2023/05/22 01:35:34;;;;;;;11.00;7.00;;;;;;;-128.00;-1.00;-1.00;105367;1253;1004420;-80
2023/05/22 01:38:01;;;;;;;9.50;6.40;;;;;;;-128.00;-1.00;-1.00;105351;1253;1004554;-77
2023/05/22 01:40:27;;;;;;;11.00;6.80;;;;;;;-128.00;-1.00;-1.00;105344;1253;1003544;-80
2023/05/22 01:42:53;;;;;;;10.50;6.30;;;;;;;-128.00;-1.00;-1.00;105310;1253;1005403;-79
2023/05/22 01:45:20;;;;;;;8.70;6.70;;;;;;;-128.00;-1.00;-1.00;105276;1254;1004582;-80
2023/05/22 01:47:47;;;;;;;11.80;7.10;;;;;;;-128.00;-1.00;-1.00;105289;1252;1004808;-80
2023/05/22 01:50:13;;;;;;;9.90;6.40;;;;;;;-128.00;-1.00;-1.00;105454;1253;1005287;-79
2023/05/22 01:52:56;;;;;;;12.80;7.80;;;;;;;-128.00;-1.00;-1.00;105353;1252;1003647;-77
2023/05/22 01:55:26;;;;;;;11.10;6.10;;;;;;;-128.00;-1.00;-1.00;105411;1254;1061059;-77
2023/05/22 01:58:01;;;;;;;13.70;8.00;;;;;;;-128.00;-1.00;-1.00;105498;1253;1057768;-79
2023/05/22 02:00:28;;;;;;;11.20;6.70;;;;;;;-128.00;-1.00;-1.00;105658;1253;1059311;-79
2023/05/22 02:03:05;;;;;;;11.40;6.60;;;;;;;-128.00;-1.00;-1.00;105601;1252;1004034;-78
2023/05/22 02:05:32;;;;;;;14.20;6.70;;;;;;;-128.00;-1.00;-1.00;105525;1253;1048005;-78
2023/05/22 02:07:59;;;;;;;9.60;6.20;;;;;;;-128.00;-1.00;-1.00;105459;1253;1004979;-77
2023/05/22 02:10:25;;;;;;;24.20;8.10;;;;;;;-128.00;-1.00;-1.00;105607;1253;1004885;-79
2023/05/22 02:12:52;;;;;;;10.50;6.50;;;;;;;-128.00;-1.00;-1.00;105692;1253;1004960;-79
2023/05/22 02:15:18;;;;;;;9.50;6.30;;;;;;;-128.00;-1.00;-1.00;105596;1253;1003975;-79
2023/05/22 02:17:48;;;;;;;10.50;6.20;;;;;;;-128.00;-1.00;-1.00;105385;1253;1003243;-79
2023/05/22 02:20:14;;;;;;;8.30;6.30;;;;;;;-128.00;-1.00;-1.00;105482;1254;1061293;-79
2023/05/22 02:22:42;;;;;;;10.60;6.50;;;;;;;-128.00;-1.00;-1.00;105469;1253;1004822;-77
2023/05/22 02:25:13;;;;;;;8.20;5.60;;;;;;;-128.00;-1.00;-1.00;105477;1253;1004645;-79
2023/05/22 02:27:40;;;;;;;10.20;7.00;;;;;;;-128.00;-1.00;-1.00;105493;1253;1045468;-79
2023/05/22 02:30:08;;;;;;;9.80;6.20;;;;;;;-128.00;-1.00;-1.00;105375;1253;1003521;-77
2023/05/22 02:32:34;;;;;;;11.90;7.20;;;;;;;-128.00;-1.00;-1.00;105474;1253;1003622;-77
2023/05/22 02:35:02;;;;;;;12.40;7.20;;;;;;;-128.00;-1.00;-1.00;105480;1253;1003627;-79
2023/05/22 02:37:28;;;;;;;9.30;5.90;;;;;;;-128.00;-1.00;-1.00;105421;1253;1004411;-77
2023/05/22 02:39:56;;;;;;;12.70;7.20;;;;;;;-128.00;-1.00;-1.00;105437;1252;1003638;-79
2023/05/22 02:42:23;;;;;;;12.10;6.50;;;;;;;-128.00;-1.00;-1.00;105687;1253;1004149;-79
2023/05/22 02:44:50;;;;;;;10.40;5.80;;;;;;;-128.00;-1.00;-1.00;105665;1253;1004189;-79
2023/05/22 02:47:16;;;;;;;12.00;6.30;;;;;;;-128.00;-1.00;-1.00;105701;1253;1003634;-77
2023/05/22 02:49:43;;;;;;;7.70;5.90;;;;;;;-128.00;-1.00;-1.00;105681;1253;1003975;-77
2023/05/22 02:52:10;;;;;;;11.80;6.70;;;;;;;-128.00;-1.00;-1.00;105400;1252;1003843;-77
2023/05/22 02:54:36;;;;;;;9.10;6.80;;;;;;;-128.00;-1.00;-1.00;105453;1253;1004374;-79
2023/05/22 02:57:03;;;;;;;14.80;6.40;;;;;;;-128.00;-1.00;-1.00;105473;1253;1004693;-77
2023/05/22 02:59:30;;;;;;;11.20;7.00;;;;;;;-128.00;-1.00;-1.00;105325;1253;1006081;-78
2023/05/22 03:01:56;;;;;;;9.10;6.10;;;;;;;-128.00;-1.00;-1.00;105438;1253;1003946;-79
2023/05/22 03:04:23;;;;;;;11.20;6.30;;;;;;;-128.00;-1.00;-1.00;105473;1253;1004427;-80
2023/05/22 03:06:49;;;;;;;13.60;6.20;;;;;;;-128.00;-1.00;-1.00;105356;1252;1004680;-79
2023/05/22 03:09:16;;;;;;;11.60;5.90;;;;;;;-128.00;-1.00;-1.00;105340;1253;1003916;-79
2023/05/22 03:11:42;;;;;;;13.00;6.60;;;;;;;-128.00;-1.00;-1.00;105373;1253;1004886;-77
2023/05/22 03:14:09;;;;;;;12.30;6.50;;;;;;;-128.00;-1.00;-1.00;105452;1253;1003751;-76
2023/05/22 03:16:35;;;;;;;10.10;6.30;;;;;;;-128.00;-1.00;-1.00;105429;1253;1004025;-79
2023/05/22 03:19:12;;;;;;;11.40;6.20;;;;;;;-128.00;-1.00;-1.00;105480;1253;1004709;-79
2023/05/22 03:21:39;;;;;;;11.00;7.00;;;;;;;-128.00;-1.00;-1.00;105498;1253;1060164;-79
2023/05/22 03:24:06;;;;;;;10.90;6.30;;;;;;;-128.00;-1.00;-1.00;105653;1253;1004464;-78
2023/05/22 03:26:32;;;;;;;12.00;6.30;;;;;;;-128.00;-1.00;-1.00;105669;1253;1004982;-77
2023/05/22 03:28:59;;;;;;;11.20;6.70;;;;;;;-128.00;-1.00;-1.00;105645;1252;1004456;-77
2023/05/22 03:31:27;;;;;;;14.10;6.40;;;;;;;-128.00;-1.00;-1.00;105683;1252;1005339;-79
2023/05/22 03:33:53;;;;;;;9.50;6.00;;;;;;;-128.00;-1.00;-1.00;105544;1253;1004362;-77
2023/05/22 03:36:20;;;;;;;14.70;6.70;;;;;;;-128.00;-1.00;-1.00;105455;1253;1004559;-79
2023/05/22 03:38:46;;;;;;;11.40;6.50;;;;;;;-128.00;-1.00;-1.00;105357;1252;1005368;-77
2023/05/22 03:41:13;;;;;;;13.70;7.10;;;;;;;-128.00;-1.00;-1.00;105482;1253;1005688;-79
2023/05/22 03:43:39;;;;;;;13.20;7.20;;;;;;;-128.00;-1.00;-1.00;105483;1253;1005027;-77
2023/05/22 03:46:05;;;;;;;13.70;6.70;;;;;;;-128.00;-1.00;-1.00;105454;1253;1005121;-77
2023/05/22 03:48:32;;;;;;;14.90;6.80;;;;;;;-128.00;-1.00;-1.00;105492;1253;1004075;-79
2023/05/22 03:50:59;;;;;;;16.90;8.30;;;;;;;-128.00;-1.00;-1.00;105263;1253;1003607;-77
2023/05/22 03:53:25;;;;;;;14.40;7.90;;;;;;;-128.00;-1.00;-1.00;105474;1253;1004409;-77
2023/05/22 03:55:52;;;;;;;17.90;10.50;;;;;;;-128.00;-1.00;-1.00;105508;1253;1004903;-79
2023/05/22 03:58:18;;;;;;;22.90;10.80;;;;;;;-128.00;-1.00;-1.00;105463;1253;1006443;-79
2023/05/22 04:00:45;;;;;;;26.10;10.80;;;;;;;-128.00;-1.00;-1.00;105476;1253;1004432;-77
2023/05/22 04:03:12;;;;;;;14.90;9.90;;;;;;;-128.00;-1.00;-1.00;105513;1252;1004561;-80
2023/05/22 04:05:38;;;;;;;15.60;9.80;;;;;;;-128.00;-1.00;-1.00;105476;1253;1003829;-77
2023/05/22 04:08:04;;;;;;;21.30;9.40;;;;;;;-128.00;-1.00;-1.00;105471;1253;1003946;-77
2023/05/22 04:10:31;;;;;;;21.20;9.00;;;;;;;-128.00;-1.00;-1.00;105496;1253;1004036;-78
2023/05/22 04:12:58;;;;;;;14.30;8.00;;;;;;;-128.00;-1.00;-1.00;105454;1253;1005725;-80
2023/05/22 04:15:24;;;;;;;16.40;8.10;;;;;;;-128.00;-1.00;-1.00;105435;1253;1005179;-79
2023/05/22 04:17:50;;;;;;;13.60;8.80;;;;;;;-128.00;-1.00;-1.00;105463;1254;1003817;-79
2023/05/22 04:20:17;;;;;;;14.30;8.10;;;;;;;-128.00;-1.00;-1.00;105458;1253;1006020;-77
2023/05/22 04:22:44;;;;;;;11.60;7.10;;;;;;;-128.00;-1.00;-1.00;105517;1253;1004179;-77
2023/05/22 04:25:11;;;;;;;13.80;7.00;;;;;;;-128.00;-1.00;-1.00;105292;1252;1004782;-79
2023/05/22 04:27:37;;;;;;;10.20;6.70;;;;;;;-128.00;-1.00;-1.00;105451;1253;1004312;-77
2023/05/22 04:30:06;;;;;;;10.40;5.40;;;;;;;-128.00;-1.00;-1.00;105452;1253;1004381;-80
2023/05/22 04:32:32;;;;;;;10.10;5.80;;;;;;;-128.00;-1.00;-1.00;105494;1252;1046714;-77
2023/05/22 04:34:59;;;;;;;9.70;5.80;;;;;;;-128.00;-1.00;-1.00;105494;1253;1004118;-77
2023/05/22 04:37:27;;;;;;;11.70;6.10;;;;;;;-128.00;-1.00;-1.00;105459;1253;1004325;-80
2023/05/22 04:39:57;;;;;;;9.10;6.10;;;;;;;-128.00;-1.00;-1.00;105430;1252;1059071;-80
2023/05/22 04:42:24;;;;;;;12.40;7.00;;;;;;;-128.00;-1.00;-1.00;105460;1253;1046609;-78
2023/05/22 04:44:51;;;;;;;10.90;6.40;;;;;;;-128.00;-1.00;-1.00;105365;1253;1004476;-79
2023/05/22 04:47:18;;;;;;;13.30;6.30;;;;;;;-128.00;-1.00;-1.00;105464;1253;1004038;-80
2023/05/22 04:49:44;;;;;;;10.40;6.40;;;;;;;-128.00;-1.00;-1.00;105503;1253;1003973;-78
2023/05/22 04:52:11;;;;;;;9.40;6.60;;;;;;;-128.00;-1.00;-1.00;105357;1254;1003751;-78
2023/05/22 04:54:37;;;;;;;10.80;5.60;;;;;;;-128.00;-1.00;-1.00;105416;1254;1004818;-80
2023/05/22 04:57:04;;;;;;;16.30;6.70;;;;;;;-128.00;-1.00;-1.00;105347;1254;1003975;-79
2023/05/22 04:59:36;;;;;;;10.60;6.60;;;;;;;-128.00;-1.00;-1.00;105356;1254;1004388;-77
2023/05/22 05:02:04;;;;;;;8.40;5.70;;;;;;;-128.00;-1.00;-1.00;105410;1253;1057791;-80
2023/05/22 05:04:30;;;;;;;12.60;7.10;;;;;;;-128.00;-1.00;-1.00;105368;1253;1004130;-78
2023/05/22 05:06:57;;;;;;;12.40;6.60;;;;;;;-128.00;-1.00;-1.00;105387;1253;1005300;-78
2023/05/22 05:09:24;;;;;;;11.90;7.00;;;;;;;-128.00;-1.00;-1.00;105381;1254;1004853;-79
2023/05/22 05:11:51;;;;;;;11.20;6.70;;;;;;;-128.00;-1.00;-1.00;105355;1257;1004494;-80
2023/05/22 05:14:18;;;;;;;11.70;7.20;;;;;;;-128.00;-1.00;-1.00;105192;1254;1004547;-78
2023/05/22 05:16:45;;;;;;;13.90;7.20;;;;;;;-128.00;-1.00;-1.00;105364;1253;1004062;-78
2023/05/22 05:19:12;;;;;;;14.00;6.40;;;;;;;-128.00;-1.00;-1.00;105334;1253;1003954;-80
2023/05/22 05:21:38;;;;;;;14.00;7.10;;;;;;;-128.00;-1.00;-1.00;105375;1254;1003934;-80
2023/05/22 05:24:05;;;;;;;9.90;6.00;;;;;;;-128.00;-1.00;-1.00;105386;1253;1005530;-78
2023/05/22 05:26:31;;;;;;;10.90;6.30;;;;;;;-128.00;-1.00;-1.00;105385;1253;1004088;-80
2023/05/22 05:28:58;;;;;;;21.20;7.40;;;;;;;-128.00;-1.00;-1.00;105397;1253;1005027;-78
2023/05/22 05:31:24;;;;;;;20.90;7.20;;;;;;;-128.00;-1.00;-1.00;105326;1254;1004428;-77
2023/05/22 05:33:51;;;;;;;14.30;6.70;;;;;;;-128.00;-1.00;-1.00;105386;1253;1004431;-80
2023/05/22 05:36:17;;;;;;;13.70;6.70;;;;;;;-128.00;-1.00;-1.00;105363;1254;1004616;-78
2023/05/22 05:38:44;;;;;;;14.90;6.60;;;;;;;-128.00;-1.00;-1.00;105418;1253;1004977;-78
2023/05/22 05:41:10;;;;;;;14.80;6.60;;;;;;;-128.00;-1.00;-1.00;105354;1253;1003825;-78
2023/05/22 05:43:36;;;;;;;14.90;7.20;;;;;;;-128.00;-1.00;-1.00;105291;1254;1005263;-80
2023/05/22 05:46:03;;;;;;;18.00;7.20;;;;;;;-128.00;-1.00;-1.00;105337;1253;1004197;-80
2023/05/22 05:48:30;;;;;;;9.60;6.10;;;;;;;-128.00;-1.00;-1.00;105262;1254;1004669;-80
2023/05/22 05:50:56;;;;;;;12.20;6.20;;;;;;;-128.00;-1.00;-1.00;105449;1253;1004145;-80
2023/05/22 05:53:22;;;;;;;12.80;6.30;;;;;;;-128.00;-1.00;-1.00;105383;1253;1006364;-80
2023/05/22 05:55:49;;;;;;;13.00;6.50;;;;;;;-128.00;-1.00;-1.00;105402;1253;1004981;-78
2023/05/22 05:58:15;;;;;;;12.20;5.90;;;;;;;-128.00;-1.00;-1.00;105344;1254;1004002;-80
2023/05/22 06:00:42;;;;;;;10.60;5.30;;;;;;;-128.00;-1.00;-1.00;105372;1253;1004124;-78
2023/05/22 06:03:09;;;;;;;11.00;6.20;;;;;;;-128.00;-1.00;-1.00;105374;1254;1003857;-78
2023/05/22 06:05:35;;;;;;;11.90;6.20;;;;;;;-128.00;-1.00;-1.00;105355;1253;1004329;-80
2023/05/22 06:08:03;;;;;;;16.60;5.80;;;;;;;-128.00;-1.00;-1.00;105255;1253;1003714;-80
2023/05/22 06:10:29;;;;;;;7.00;5.60;;;;;;;-128.00;-1.00;-1.00;105307;1254;1003710;-80
2023/05/22 06:12:55;;;;;;;11.70;7.20;;;;;;;-128.00;-1.00;-1.00;105450;1254;1005182;-80
2023/05/22 06:15:22;;;;;;;9.50;5.50;;;;;;;-128.00;-1.00;-1.00;105391;1254;1004467;-80
2023/05/22 06:17:48;;;;;;;11.60;5.30;;;;;;;-128.00;-1.00;-1.00;105443;1254;1004162;-79
2023/05/22 06:20:14;;;;;;;8.60;5.90;;;;;;;-128.00;-1.00;-1.00;105377;1254;1004542;-78
2023/05/22 06:22:41;;;;;;;11.50;5.90;;;;;;;-128.00;-1.00;-1.00;105328;1253;1003786;-79
2023/05/22 06:25:08;;;;;;;14.20;5.60;;;;;;;-128.00;-1.00;-1.00;105362;1256;1005191;-78
2023/05/22 06:27:35;;;;;;;11.00;6.30;;;;;;;-128.00;-1.00;-1.00;105384;1254;1003895;-81
2023/05/22 06:30:02;;;;;;;19.10;6.90;;;;;;;-128.00;-1.00;-1.00;105393;1252;1004813;-78
2023/05/22 06:32:28;;;;;;;6.50;4.80;;;;;;;-128.00;-1.00;-1.00;105363;1254;1004780;-80
2023/05/22 06:34:54;;;;;;;8.30;5.20;;;;;;;-128.00;-1.00;-1.00;105338;1253;1006701;-78
2023/05/22 06:37:21;;;;;;;15.30;6.60;;;;;;;-128.00;-1.00;-1.00;105333;1254;1004734;-78
2023/05/22 06:39:47;;;;;;;8.90;4.60;;;;;;;-128.00;-1.00;-1.00;105367;1254;1004656;-79
2023/05/22 06:42:14;;;;;;;7.60;4.30;;;;;;;-128.00;-1.00;-1.00;105345;1256;1005235;-78
2023/05/22 06:44:40;;;;;;;9.80;4.60;;;;;;;-128.00;-1.00;-1.00;105330;1254;1003985;-78
2023/05/22 06:47:07;;;;;;;7.40;4.90;;;;;;;-128.00;-1.00;-1.00;105329;1257;1004853;-78
2023/05/22 06:49:33;;;;;;;8.10;4.50;;;;;;;-128.00;-1.00;-1.00;105409;1253;1005641;-78
2023/05/22 06:51:59;;;;;;;7.40;4.50;;;;;;;-128.00;-1.00;-1.00;105381;1253;1004463;-82
2023/05/22 06:54:28;;;;;;;9.50;4.70;;;;;;;-128.00;-1.00;-1.00;105368;1253;1006193;-81
2023/05/22 06:56:55;;;;;;;7.00;4.50;;;;;;;-128.00;-1.00;-1.00;105391;1254;1046352;-81
2023/05/22 06:59:22;;;;;;;6.90;4.30;;;;;;;-128.00;-1.00;-1.00;105379;1253;1004156;-81
2023/05/22 07:01:48;;;;;;;9.30;4.10;;;;;;;-128.00;-1.00;-1.00;105394;1253;1005467;-78
2023/05/22 07:04:15;;;;;;;6.60;5.20;;;;;;;-128.00;-1.00;-1.00;105299;1254;1005287;-80
2023/05/22 07:06:41;;;;;;;8.90;4.40;;;;;;;-128.00;-1.00;-1.00;105332;1253;1005356;-80
2023/05/22 07:09:09;;;;;;;9.20;4.10;;;;;;;-128.00;-1.00;-1.00;105359;1254;1003757;-81
2023/05/22 07:11:36;;;;;;;7.40;4.30;;;;;;;-128.00;-1.00;-1.00;105368;1254;1003546;-78
2023/05/22 07:14:02;;;;;;;8.00;4.10;;;;;;;-128.00;-1.00;-1.00;105343;1254;1005647;-81
2023/05/22 07:16:29;;;;;;;6.70;3.50;;;;;;;-128.00;-1.00;-1.00;105274;1254;1004061;-80
2023/05/22 07:18:56;;;;;;;10.80;4.10;;;;;;;-128.00;-1.00;-1.00;105299;1254;1004325;-78
2023/05/22 07:21:23;;;;;;;9.90;3.90;;;;;;;-128.00;-1.00;-1.00;105329;1252;1004127;-78
2023/05/22 07:23:50;;;;;;;7.30;3.70;;;;;;;-128.00;-1.00;-1.00;105525;1253;1004955;-78
2023/05/22 07:26:17;;;;;;;7.00;4.10;;;;;;;-128.00;-1.00;-1.00;105387;1254;1005227;-78
2023/05/22 07:28:43;;;;;;;5.50;3.50;;;;;;;-128.00;-1.00;-1.00;105393;1252;1005220;-81
2023/05/22 07:31:10;;;;;;;5.10;3.60;;;;;;;-128.00;-1.00;-1.00;105329;1254;1005137;-78
2023/05/22 07:33:36;;;;;;;7.00;3.40;;;;;;;-128.00;-1.00;-1.00;105384;1254;1004094;-78
2023/05/22 07:36:03;;;;;;;8.10;4.20;;;;;;;-128.00;-1.00;-1.00;105334;1253;1004029;-78
2023/05/22 07:38:29;;;;;;;5.10;3.60;;;;;;;-128.00;-1.00;-1.00;105337;1253;1004506;-80
2023/05/22 07:40:56;;;;;;;12.10;3.90;;;;;;;-128.00;-1.00;-1.00;105325;1256;1004071;-78
2023/05/22 07:43:22;;;;;;;5.20;2.90;;;;;;;-128.00;-1.00;-1.00;105377;1253;1003468;-79
2023/05/22 07:45:50;;;;;;;7.60;3.60;;;;;;;-128.00;-1.00;-1.00;105315;1254;1004341;-79
2023/05/22 07:48:16;;;;;;;3.90;3.10;;;;;;;-128.00;-1.00;-1.00;105351;1254;1004395;-82
2023/05/22 07:50:44;;;;;;;6.80;2.90;;;;;;;-128.00;-1.00;-1.00;105420;1254;1004092;-79
2023/05/22 07:53:11;;;;;;;3.30;2.50;;;;;;;-128.00;-1.00;-1.00;105368;1254;1004910;-81
2023/05/22 07:55:38;;;;;;;4.90;3.00;;;;;;;-128.00;-1.00;-1.00;105366;1253;1004145;-81
2023/05/22 07:58:04;;;;;;;6.10;2.70;;;;;;;-128.00;-1.00;-1.00;105414;1254;1004250;-78
2023/05/22 08:00:31;;;;;;;9.20;3.10;;;;;;;-128.00;-1.00;-1.00;105465;1254;1004026;-82
2023/05/22 08:02:57;;;;;;;4.60;2.50;;;;;;;-128.00;-1.00;-1.00;105414;1254;1003453;-79
2023/05/22 08:05:24;;;;;;;5.60;3.10;;;;;;;-128.00;-1.00;-1.00;105283;1254;1004877;-82
2023/05/22 08:07:50;;;;;;;6.70;3.00;;;;;;;-128.00;-1.00;-1.00;105421;1254;1004059;-79
2023/05/22 08:10:17;;;;;;;8.90;2.60;;;;;;;-128.00;-1.00;-1.00;105406;1254;1004488;-82
2023/05/22 08:12:43;;;;;;;5.10;2.90;;;;;;;-128.00;-1.00;-1.00;105435;1254;1003882;-79
2023/05/22 08:15:10;;;;;;;5.40;2.60;;;;;;;-128.00;-1.00;-1.00;105588;1253;1004122;-82
2023/05/22 08:17:36;;;;;;;4.50;2.60;;;;;;;-128.00;-1.00;-1.00;105361;1254;1004048;-79
2023/05/22 08:20:04;;;;;;;6.70;2.70;;;;;;;-128.00;-1.00;-1.00;105397;1254;1005019;-81
2023/05/22 08:22:30;;;;;;;6.30;3.00;;;;;;;-128.00;-1.00;-1.00;105438;1253;1003608;-81
2023/05/22 08:24:57;;;;;;;4.40;2.80;;;;;;;-128.00;-1.00;-1.00;105407;1253;1004935;-81
2023/05/22 08:27:23;;;;;;;4.40;2.60;;;;;;;-128.00;-1.00;-1.00;105416;1254;1004565;-81
2023/05/22 08:29:50;;;;;;;5.70;3.00;;;;;;;-128.00;-1.00;-1.00;105397;1254;1004665;-82
2023/05/22 08:32:17;;;;;;;5.00;2.50;;;;;;;-128.00;-1.00;-1.00;105371;1254;1005714;-82
2023/05/22 08:34:44;;;;;;;5.60;2.70;;;;;;;-128.00;-1.00;-1.00;105404;1252;1004274;-82
2023/05/22 08:37:13;;;;;;;6.20;2.40;;;;;;;-128.00;-1.00;-1.00;105403;1256;1004014;-82
2023/05/22 08:39:39;;;;;;;;;;;;;;;-128.00;-1.00;-1.00;105442;1253;1006368;-79
2023/05/22 08:42:06;;;;;;;3.30;2.10;;;;;;;-128.00;-1.00;-1.00;105398;1254;1003430;-79
2023/05/22 08:44:32;;;;;;;5.80;2.50;;;;;;;-128.00;-1.00;-1.00;105287;1253;1004678;-82
2023/05/22 08:46:59;;;;;;;7.40;2.60;;;;;;;-128.00;-1.00;-1.00;105416;1254;1004976;-79
2023/05/22 08:49:26;;;;;;;4.20;3.20;;;;;;;-128.00;-1.00;-1.00;105352;1254;1003944;-82
2023/05/22 08:51:54;;;;;;;6.50;2.70;;;;;;;-128.00;-1.00;-1.00;105469;1253;1004516;-81
2023/05/22 08:54:22;;;;;;;3.50;2.30;;;;;;;-128.00;-1.00;-1.00;105339;1254;1062352;-81
2023/05/22 08:56:48;;;;;;;6.00;2.60;;;;;;;-128.00;-1.00;-1.00;105224;1254;1004418;-81
2023/05/22 08:59:15;;;;;;;3.40;2.10;;;;;;;-128.00;-1.00;-1.00;105398;1256;1004613;-79
2023/05/22 09:01:41;;;;;;;4.20;2.70;;;;;;;-128.00;-1.00;-1.00;105446;1253;1005874;-81
2023/05/22 09:04:08;;;;;;;3.60;2.20;;;;;;;-128.00;-1.00;-1.00;105392;1254;1003589;-81
2023/05/22 09:06:34;;;;;;;9.10;2.90;;;;;;;-128.00;-1.00;-1.00;105369;1253;1005638;-79
2023/05/22 09:09:02;;;;;;;5.00;2.30;;;;;;;-128.00;-1.00;-1.00;105430;1253;1004462;-81
2023/05/22 09:11:28;;;;;;;;;;;;;;;-128.00;-1.00;-1.00;105409;1253;1004539;-79
2023/05/22 09:14:10;;;;;;;7.10;3.30;;;;;;;-128.00;-1.00;-1.00;105312;1254;1004041;-82
2023/05/22 09:16:45;;;;;;;6.30;2.70;;;;;;;-128.00;-1.00;-1.00;105300;1254;1057023;-79
2023/05/22 09:19:13;;;;;;;6.90;3.10;;;;;;;-128.00;-1.00;-1.00;105453;1252;1059836;-79
2023/05/22 09:21:40;;;;;;;;;;;;;;;-128.00;-1.00;-1.00;105537;1254;1004354;-79
2023/05/22 09:24:08;;;;;;;5.20;2.90;;;;;;;-128.00;-1.00;-1.00;105568;1254;1004517;-79
2023/05/22 09:26:37;;;;;;;4.10;3.00;;;;;;;-128.00;-1.00;-1.00;105463;1254;1003837;-82
2023/05/22 09:29:04;;;;;;;5.00;3.00;;;;;;;-128.00;-1.00;-1.00;105426;1254;1004752;-79
2023/05/22 09:31:31;;;;;;;3.40;2.50;;;;;;;-128.00;-1.00;-1.00;105385;1254;1003494;-82
2023/05/22 09:33:58;;;;;;;4.00;3.00;;;;;;;-128.00;-1.00;-1.00;105410;1253;1004984;-79
2023/05/22 09:36:32;;;;;;;5.00;2.90;;;;;;;-128.00;-1.00;-1.00;105419;1254;1004724;-79
2023/05/22 09:39:02;;;;;;;4.20;2.90;;;;;;;-128.00;-1.00;-1.00;105410;1253;1060975;-79
2023/05/22 09:41:32;;;;;;;4.50;2.90;;;;;;;-128.00;-1.00;-1.00;105480;1254;1059627;-79
2023/05/22 09:43:59;;;;;;;4.30;2.50;;;;;;;-128.00;-1.00;-1.00;105320;1254;1058655;-82
2023/05/22 09:46:25;;;;;;;4.40;2.80;;;;;;;-128.00;-1.00;-1.00;105317;1253;1005252;-81
2023/05/22 09:48:52;;;;;;;8.20;2.60;;;;;;;-128.00;-1.00;-1.00;105327;1254;1004414;-83
2023/05/22 09:51:26;;;;;;;9.00;2.40;;;;;;;-128.00;-1.00;-1.00;105414;1253;1003872;-83
2023/05/22 09:53:55;;;;;;;9.10;2.60;;;;;;;-128.00;-1.00;-1.00;105250;1252;1059379;-82
2023/05/22 09:56:23;;;;;;;6.60;2.60;;;;;;;-128.00;-1.00;-1.00;105303;1254;1059436;-82
2023/05/22 09:58:51;;;;;;;4.50;2.50;;;;;;;-128.00;-1.00;-1.00;105334;1254;1004228;-82
2023/05/22 10:01:18;;;;;;;3.80;2.90;;;;;;;-128.00;-1.00;-1.00;105356;1252;1004778;-80
2023/05/22 10:03:45;;;;;;;5.60;2.60;;;;;;;-128.00;-1.00;-1.00;105338;1253;1005007;-80
2023/05/22 10:06:12;;;;;;;3.40;2.40;;;;;;;-128.00;-1.00;-1.00;105382;1256;1003976;-82
2023/05/22 10:08:43;;;;;;;10.20;3.50;;;;;;;-128.00;-1.00;-1.00;105272;1259;1004076;-82
2023/05/22 10:11:10;;;;;;;6.20;3.30;;;;;;;-128.00;-1.00;-1.00;105426;1254;1045425;-83
2023/05/22 10:13:36;;;;;;;5.90;2.50;;;;;;;-128.00;-1.00;-1.00;105407;1254;1005071;-80
2023/05/22 10:16:06;;;;;;;6.30;2.80;;;;;;;-128.00;-1.00;-1.00;105302;1254;1004350;-82
2023/05/22 10:18:33;;;;;;;6.20;2.70;;;;;;;-128.00;-1.00;-1.00;105422;1254;1057774;-82
2023/05/22 10:20:59;;;;;;;6.70;2.80;;;;;;;-128.00;-1.00;-1.00;105328;1254;1004116;-80
2023/05/22 10:23:26;;;;;;;7.20;3.20;;;;;;;-128.00;-1.00;-1.00;105381;1254;1004515;-80
2023/05/22 10:25:53;;;;;;;3.90;2.70;;;;;;;-128.00;-1.00;-1.00;105214;1254;1005125;-80
2023/05/22 10:28:31;;;;;;;3.90;2.40;;;;;;;-128.00;-1.00;-1.00;105214;1254;1004677;-80
2023/05/22 10:31:05;;;;;;;4.70;2.90;;;;;;;-128.00;-1.00;-1.00;105207;1257;1057683;-83
2023/05/22 10:33:35;;;;;;;5.10;2.60;;;;;;;-128.00;-1.00;-1.00;105410;1254;1059425;-80
2023/05/22 10:36:04;;;;;;;8.60;2.60;;;;;;;-128.00;-1.00;-1.00;105302;1254;1043547;-82
2023/05/22 10:38:58;;;;;;;5.10;2.50;;;;;;;-128.00;-1.00;-1.00;105357;1254;1047304;-82
2023/05/22 10:41:25;;;;;;;4.30;2.40;;;;;;;-128.00;-1.00;-1.00;105449;1253;1061504;-79
2023/05/22 10:43:51;;;;;;;10.00;3.10;;;;;;;-128.00;-1.00;-1.00;105332;1254;1004661;-79
2023/05/22 10:46:18;;;;;;;5.20;2.60;;;;;;;-128.00;-1.00;-1.00;105175;1254;1004329;-81
2023/05/22 10:48:45;;;;;;;3.50;2.40;;;;;;;-128.00;-1.00;-1.00;105365;1253;1004479;-82
2023/05/22 10:51:13;;;;;;;2.90;2.40;;;;;;;-128.00;-1.00;-1.00;105470;1254;1003850;-79
2023/05/22 10:53:41;;;;;;;6.50;2.40;;;;;;;-128.00;-1.00;-1.00;105420;1254;1004236;-82
2023/05/22 10:56:09;;;;;;;4.10;2.50;;;;;;;-128.00;-1.00;-1.00;105416;1254;1004998;-82
2023/05/22 10:58:36;;;;;;;5.70;2.70;;;;;;;-128.00;-1.00;-1.00;105390;1257;1004130;-81
2023/05/22 11:01:12;;;;;;;7.80;2.40;;;;;;;-128.00;-1.00;-1.00;105406;1254;1004319;-83
2023/05/22 11:04:05;;;;;;;7.80;3.10;;;;;;;-128.00;-1.00;-1.00;105367;1256;1046376;-80
2023/05/22 11:06:55;;;;;;;4.00;2.30;;;;;;;-128.00;-1.00;-1.00;105399;1254;1062113;-80
2023/05/22 11:09:40;;;;;;;5.00;2.60;;;;;;;-128.00;-1.00;-1.00;105286;1254;1059560;-82
2023/05/22 11:12:16;;;;;;;4.90;2.40;;;;;;;-128.00;-1.00;-1.00;105354;1253;1059100;-82
2023/05/22 11:14:46;;;;;;;8.10;2.70;;;;;;;-128.00;-1.00;-1.00;105367;1254;1045886;-80
2023/05/22 11:17:17;;;;;;;3.60;2.70;;;;;;;-128.00;-1.00;-1.00;105410;1253;1047045;-83